sensor_id;sensor_type;location;lat;lon;timestamp;pressure;altitude;pressure_sealevel;temperature;humidity
72294;BME280;60632;49.236;8.398;2022-11-15T00:00:24;100299.56;;;10.57;71.81
72294;BME280;60632;49.236;8.398;2022-11-15T00:03:26;100298.72;;;10.57;71.76
72294;BME280;60632;49.236;8.398;2022-11-15T00:06:27;100288.72;;;10.57;71.84
72294;BME280;60632;49.236;8.398;2022-11-15T00:09:27;100293.31;;;10.57;71.57
72294;BME280;60632;49.236;8.398;2022-11-15T00:12:28;100291.63;;;10.56;71.66
72294;BME280;60632;49.236;8.398;2022-11-15T00:15:28;100287.88;;;10.57;71.63
72294;BME280;60632;49.236;8.398;2022-11-15T00:18:29;100289.78;;;10.56;71.59
72294;BME280;60632;49.236;8.398;2022-11-15T00:21:29;100292.50;;;10.56;71.69
72294;BME280;60632;49.236;8.398;2022-11-15T00:24:30;100292.50;;;10.56;71.78
72294;BME280;60632;49.236;8.398;2022-11-15T00:27:30;100293.31;;;10.57;71.84
72294;BME280;60632;49.236;8.398;2022-11-15T00:30:30;100287.28;;;10.55;71.83
72294;BME280;60632;49.236;8.398;2022-11-15T00:33:31;100287.88;;;10.57;71.81
72294;BME280;60632;49.236;8.398;2022-11-15T00:36:34;100290.00;;;10.55;71.73
72294;BME280;60632;49.236;8.398;2022-11-15T00:39:35;100283.50;;;10.56;71.87
72294;BME280;60632;49.236;8.398;2022-11-15T00:42:35;100281.66;;;10.56;71.80
72294;BME280;60632;49.236;8.398;2022-11-15T00:45:35;100278.09;;;10.56;71.79
72294;BME280;60632;49.236;8.398;2022-11-15T00:48:36;100279.16;;;10.55;71.60
72294;BME280;60632;49.236;8.398;2022-11-15T00:51:37;100276.22;;;10.56;71.73
72294;BME280;60632;49.236;8.398;2022-11-15T00:54:37;100267.50;;;10.54;71.79
72294;BME280;60632;49.236;8.398;2022-11-15T00:57:37;100261.25;;;10.54;71.91
72294;BME280;60632;49.236;8.398;2022-11-15T01:00:38;100272.91;;;10.54;71.81
72294;BME280;60632;49.236;8.398;2022-11-15T01:03:38;100266.44;;;10.55;71.85
72294;BME280;60632;49.236;8.398;2022-11-15T01:06:39;100257.47;;;10.55;71.77
72294;BME280;60632;49.236;8.398;2022-11-15T01:09:39;100253.13;;;10.54;71.79
72294;BME280;60632;49.236;8.398;2022-11-15T01:12:40;100257.47;;;10.55;71.86
72294;BME280;60632;49.236;8.398;2022-11-15T01:15:40;100242.28;;;10.54;71.84
72294;BME280;60632;49.236;8.398;2022-11-15T01:18:41;100245.81;;;10.54;71.77
72294;BME280;60632;49.236;8.398;2022-11-15T01:21:41;100255.84;;;10.54;71.82
72294;BME280;60632;49.236;8.398;2022-11-15T01:24:42;100261.25;;;10.54;71.63
72294;BME280;60632;49.236;8.398;2022-11-15T01:27:42;100251.25;;;10.54;71.85
72294;BME280;60632;49.236;8.398;2022-11-15T01:30:43;100245.81;;;10.54;71.68
72294;BME280;60632;49.236;8.398;2022-11-15T01:33:43;100253.13;;;10.54;71.61
72294;BME280;60632;49.236;8.398;2022-11-15T01:36:43;100245.00;;;10.54;71.74
72294;BME280;60632;49.236;8.398;2022-11-15T01:39:44;100246.91;;;10.53;71.67
72294;BME280;60632;49.236;8.398;2022-11-15T01:42:44;100242.28;;;10.54;71.79
72294;BME280;60632;49.236;8.398;2022-11-15T01:45:45;100245.00;;;10.54;71.80
72294;BME280;60632;49.236;8.398;2022-11-15T01:48:49;100232.50;;;10.52;71.82
72294;BME280;60632;49.236;8.398;2022-11-15T01:51:51;100232.50;;;10.52;71.75
72294;BME280;60632;49.236;8.398;2022-11-15T01:55:00;100231.47;;;10.54;71.83
72294;BME280;60632;49.236;8.398;2022-11-15T01:58:02;100232.50;;;10.52;71.71
72294;BME280;60632;49.236;8.398;2022-11-15T02:01:04;100227.06;;;10.52;71.58
72294;BME280;60632;49.236;8.398;2022-11-15T02:04:09;100227.94;;;10.53;71.76
72294;BME280;60632;49.236;8.398;2022-11-15T02:07:12;100227.06;;;10.52;71.70
72294;BME280;60632;49.236;8.398;2022-11-15T02:10:18;100216.25;;;10.52;71.71
72294;BME280;60632;49.236;8.398;2022-11-15T02:13:19;100213.53;;;10.52;71.61
72294;BME280;60632;49.236;8.398;2022-11-15T02:19:36;100193.75;;;10.52;71.71
72294;BME280;60632;49.236;8.398;2022-11-15T02:38:04;100182.91;;;10.52;71.71
72294;BME280;60632;49.236;8.398;2022-11-15T02:41:09;100174.78;;;10.52;71.83
72294;BME280;60632;49.236;8.398;2022-11-15T02:44:16;100171.25;;;10.51;71.70
72294;BME280;60632;49.236;8.398;2022-11-15T02:47:17;100165.81;;;10.51;71.61
72294;BME280;60632;49.236;8.398;2022-11-15T02:50:18;100165.81;;;10.51;71.80
72294;BME280;60632;49.236;8.398;2022-11-15T02:53:23;100161.47;;;10.50;71.88
72294;BME280;60632;49.236;8.398;2022-11-15T02:56:23;100163.94;;;10.52;71.67
72294;BME280;60632;49.236;8.398;2022-11-15T03:08:57;100156.06;;;10.50;71.84
72294;BME280;60632;49.236;8.398;2022-11-15T03:12:11;100156.88;;;10.51;71.67
72294;BME280;60632;49.236;8.398;2022-11-15T03:15:18;100157.69;;;10.51;71.77
72294;BME280;60632;49.236;8.398;2022-11-15T03:18:29;100148.75;;;10.51;71.82
72294;BME280;60632;49.236;8.398;2022-11-15T03:21:32;100144.16;;;10.51;71.80
72294;BME280;60632;49.236;8.398;2022-11-15T03:24:33;100145.22;;;10.50;71.81
72294;BME280;60632;49.236;8.398;2022-11-15T03:27:40;100150.38;;;10.52;71.81
72294;BME280;60632;49.236;8.398;2022-11-15T03:30:41;100151.47;;;10.51;71.77
72294;BME280;60632;49.236;8.398;2022-11-15T03:33:45;100147.94;;;10.50;71.82
72294;BME280;60632;49.236;8.398;2022-11-15T03:36:45;100142.50;;;10.50;71.76
72294;BME280;60632;49.236;8.398;2022-11-15T03:39:45;100147.94;;;10.50;71.86
72294;BME280;60632;49.236;8.398;2022-11-15T03:42:46;100139.00;;;10.50;71.82
72294;BME280;60632;49.236;8.398;2022-11-15T03:46:05;100134.38;;;10.50;71.74
72294;BME280;60632;49.236;8.398;2022-11-15T03:49:09;100127.31;;;10.49;72.01
72294;BME280;60632;49.236;8.398;2022-11-15T03:52:10;100130.84;;;10.50;71.80
72294;BME280;60632;49.236;8.398;2022-11-15T03:55:13;100137.91;;;10.51;71.79
72294;BME280;60632;49.236;8.398;2022-11-15T03:58:14;100126.25;;;10.50;71.75
72294;BME280;60632;49.236;8.398;2022-11-15T04:01:14;100132.50;;;10.51;71.84
72294;BME280;60632;49.236;8.398;2022-11-15T04:04:14;100131.69;;;10.50;71.65
72294;BME280;60632;49.236;8.398;2022-11-15T04:07:15;100137.91;;;10.51;71.72
72294;BME280;60632;49.236;8.398;2022-11-15T04:10:15;100146.25;;;10.49;71.80
72294;BME280;60632;49.236;8.398;2022-11-15T04:13:15;100145.22;;;10.50;71.83
72294;BME280;60632;49.236;8.398;2022-11-15T04:16:16;100147.94;;;10.50;71.79
72294;BME280;60632;49.236;8.398;2022-11-15T04:19:16;100143.56;;;10.49;71.71
72294;BME280;60632;49.236;8.398;2022-11-15T04:22:35;100146.25;;;10.49;71.74
72294;BME280;60632;49.236;8.398;2022-11-15T04:25:54;100137.09;;;10.50;71.78
72294;BME280;60632;49.236;8.398;2022-11-15T04:28:58;100130.84;;;10.50;71.82
72294;BME280;60632;49.236;8.398;2022-11-15T04:32:17;100132.50;;;10.51;71.74
72294;BME280;60632;49.236;8.398;2022-11-15T04:35:17;100126.25;;;10.50;71.79
72294;BME280;60632;49.236;8.398;2022-11-15T04:38:18;100126.25;;;10.50;71.78
72294;BME280;60632;49.236;8.398;2022-11-15T04:41:18;100112.72;;;10.50;71.69
72294;BME280;60632;49.236;8.398;2022-11-15T04:44:18;100110.00;;;10.50;71.81
72294;BME280;60632;49.236;8.398;2022-11-15T04:47:19;100110.81;;;10.51;71.67
72294;BME280;60632;49.236;8.398;2022-11-15T04:50:19;100120.84;;;10.50;71.71
72294;BME280;60632;49.236;8.398;2022-11-15T04:53:19;100115.41;;;10.50;71.89
72294;BME280;60632;49.236;8.398;2022-11-15T04:56:20;100112.72;;;10.50;71.86
72294;BME280;60632;49.236;8.398;2022-11-15T04:59:20;100110.00;;;10.50;71.69
72294;BME280;60632;49.236;8.398;2022-11-15T05:02:20;100115.41;;;10.50;71.75
72294;BME280;60632;49.236;8.398;2022-11-15T05:05:21;100110.81;;;10.51;71.87
72294;BME280;60632;49.236;8.398;2022-11-15T05:08:21;100106.22;;;10.51;71.61
72294;BME280;60632;49.236;8.398;2022-11-15T05:11:22;100101.88;;;10.50;71.81
72294;BME280;60632;49.236;8.398;2022-11-15T05:14:22;100093.75;;;10.50;71.69
72294;BME280;60632;49.236;8.398;2022-11-15T05:17:23;100097.28;;;10.51;71.67
72294;BME280;60632;49.236;8.398;2022-11-15T05:20:23;100093.75;;;10.50;71.64
72294;BME280;60632;49.236;8.398;2022-11-15T05:23:23;100099.16;;;10.50;71.70
72294;BME280;60632;49.236;8.398;2022-11-15T05:26:24;100103.75;;;10.50;71.80
72294;BME280;60632;49.236;8.398;2022-11-15T05:29:24;100110.00;;;10.50;71.86
72294;BME280;60632;49.236;8.398;2022-11-15T05:32:24;100105.41;;;10.51;71.82
72294;BME280;60632;49.236;8.398;2022-11-15T05:35:36;100099.16;;;10.50;71.75
72294;BME280;60632;49.236;8.398;2022-11-15T05:38:38;100096.44;;;10.50;71.78
72294;BME280;60632;49.236;8.398;2022-11-15T05:41:41;100092.94;;;10.50;71.79
72294;BME280;60632;49.236;8.398;2022-11-15T05:44:44;100091.84;;;10.51;71.85
72294;BME280;60632;49.236;8.398;2022-11-15T05:47:46;100089.38;;;10.49;71.79
72294;BME280;60632;49.236;8.398;2022-11-15T05:50:48;100091.03;;;10.50;71.89
72294;BME280;60632;49.236;8.398;2022-11-15T05:53:48;100097.28;;;10.51;71.84
72294;BME280;60632;49.236;8.398;2022-11-15T05:56:52;100094.78;;;10.49;71.84
72294;BME280;60632;49.236;8.398;2022-11-15T05:59:53;100093.75;;;10.50;71.80
72294;BME280;60632;49.236;8.398;2022-11-15T06:02:54;100102.91;;;10.49;71.91
72294;BME280;60632;49.236;8.398;2022-11-15T06:05:54;100104.59;;;10.50;71.88
72294;BME280;60632;49.236;8.398;2022-11-15T06:08:56;100099.16;;;10.50;71.74
72294;BME280;60632;49.236;8.398;2022-11-15T06:11:56;100101.06;;;10.50;71.86
72294;BME280;60632;49.236;8.398;2022-11-15T06:14:56;100093.97;;;10.49;71.77
72294;BME280;60632;49.236;8.398;2022-11-15T06:17:57;100093.75;;;10.50;71.85
72294;BME280;60632;49.236;8.398;2022-11-15T06:21:00;100092.94;;;10.50;71.88
72294;BME280;60632;49.236;8.398;2022-11-15T06:24:01;100089.38;;;10.49;71.75
72294;BME280;60632;49.236;8.398;2022-11-15T06:27:01;100092.06;;;10.49;71.72
72294;BME280;60632;49.236;8.398;2022-11-15T06:30:01;100088.31;;;10.50;71.85
72294;BME280;60632;49.236;8.398;2022-11-15T06:33:02;100086.66;;;10.49;71.63
72294;BME280;60632;49.236;8.398;2022-11-15T06:36:04;100083.94;;;10.49;71.78
72294;BME280;60632;49.236;8.398;2022-11-15T06:39:05;100087.50;;;10.50;71.81
72294;BME280;60632;49.236;8.398;2022-11-15T06:42:05;100080.19;;;10.50;71.67
72294;BME280;60632;49.236;8.398;2022-11-15T06:45:05;100078.53;;;10.49;71.79
72294;BME280;60632;49.236;8.398;2022-11-15T06:48:06;100082.09;;;10.50;71.84
72294;BME280;60632;49.236;8.398;2022-11-15T06:51:06;100076.66;;;10.50;71.85
72294;BME280;60632;49.236;8.398;2022-11-15T06:54:08;100076.66;;;10.50;71.59
72294;BME280;60632;49.236;8.398;2022-11-15T06:57:08;100064.97;;;10.49;71.71
72294;BME280;60632;49.236;8.398;2022-11-15T07:00:09;100081.25;;;10.49;71.88
72294;BME280;60632;49.236;8.398;2022-11-15T07:03:09;100080.19;;;10.50;71.60
72294;BME280;60632;49.236;8.398;2022-11-15T07:06:10;100082.91;;;10.50;71.82
72294;BME280;60632;49.236;8.398;2022-11-15T07:09:10;100083.72;;;10.51;71.62
72294;BME280;60632;49.236;8.398;2022-11-15T07:12:10;100081.25;;;10.49;71.71
72294;BME280;60632;49.236;8.398;2022-11-15T07:15:11;100090.78;;;10.52;71.66
72294;BME280;60632;49.236;8.398;2022-11-15T07:18:11;100089.97;;;10.51;71.83
72294;BME280;60632;49.236;8.398;2022-11-15T07:21:11;100093.50;;;10.52;71.68
72294;BME280;60632;49.236;8.398;2022-11-15T07:24:15;100089.16;;;10.51;71.68
72294;BME280;60632;49.236;8.398;2022-11-15T07:27:15;100095.38;;;10.51;71.70
72294;BME280;60632;49.236;8.398;2022-11-15T07:30:15;100097.03;;;10.52;71.59
72294;BME280;60632;49.236;8.398;2022-11-15T07:33:16;100089.97;;;10.51;71.65
72294;BME280;60632;49.236;8.398;2022-11-15T07:36:16;100096.19;;;10.52;71.89
72294;BME280;60632;49.236;8.398;2022-11-15T07:39:16;100097.03;;;10.52;71.58
72294;BME280;60632;49.236;8.398;2022-11-15T07:42:17;100095.38;;;10.51;71.70
72294;BME280;60632;49.236;8.398;2022-11-15T07:45:45;100097.28;;;10.51;71.80
72294;BME280;60632;49.236;8.398;2022-11-15T07:48:45;100107.03;;;10.52;71.89
72294;BME280;60632;49.236;8.398;2022-11-15T07:51:46;100100.81;;;10.51;71.83
72294;BME280;60632;49.236;8.398;2022-11-15T07:54:46;100102.44;;;10.52;71.70
72294;BME280;60632;49.236;8.398;2022-11-15T07:57:46;100106.22;;;10.51;71.88
72294;BME280;60632;49.236;8.398;2022-11-15T08:00:47;100113.28;;;10.52;71.81
72294;BME280;60632;49.236;8.398;2022-11-15T08:03:47;100100.81;;;10.51;71.81
72294;BME280;60632;49.236;8.398;2022-11-15T08:06:47;100093.50;;;10.52;71.80
72294;BME280;60632;49.236;8.398;2022-11-15T08:09:48;100089.16;;;10.51;71.74
72294;BME280;60632;49.236;8.398;2022-11-15T08:12:55;100091.59;;;10.52;71.85
72294;BME280;60632;49.236;8.398;2022-11-15T08:15:59;100084.53;;;10.51;71.90
72294;BME280;60632;49.236;8.398;2022-11-15T08:19:00;100097.03;;;10.52;71.82
72294;BME280;60632;49.236;8.398;2022-11-15T08:22:00;100087.25;;;10.51;71.86
72294;BME280;60632;49.236;8.398;2022-11-15T08:25:01;100086.19;;;10.52;71.80
72294;BME280;60632;49.236;8.398;2022-11-15T08:28:03;100087.03;;;10.53;71.74
72294;BME280;60632;49.236;8.398;2022-11-15T08:31:04;100084.53;;;10.51;71.71
72294;BME280;60632;49.236;8.398;2022-11-15T08:34:05;100081.84;;;10.51;71.69
72294;BME280;60632;49.236;8.398;2022-11-15T08:37:05;100069.91;;;10.52;71.73
72294;BME280;60632;49.236;8.398;2022-11-15T08:40:06;100072.63;;;10.52;71.78
72294;BME280;60632;49.236;8.398;2022-11-15T08:43:06;100069.09;;;10.52;71.89
72294;BME280;60632;49.236;8.398;2022-11-15T08:46:08;100068.88;;;10.54;71.72
72294;BME280;60632;49.236;8.398;2022-11-15T08:49:10;100078.91;;;10.53;71.64
72294;BME280;60632;49.236;8.398;2022-11-15T08:52:11;100071.59;;;10.54;71.86
72294;BME280;60632;49.236;8.398;2022-11-15T08:55:11;100080.75;;;10.52;71.69
72294;BME280;60632;49.236;8.398;2022-11-15T08:58:12;100082.44;;;10.54;71.85
72294;BME280;60632;49.236;8.398;2022-11-15T09:01:19;100071.81;;;10.52;71.70
72294;BME280;60632;49.236;8.398;2022-11-15T09:04:19;100076.19;;;10.53;71.80
72294;BME280;60632;49.236;8.398;2022-11-15T09:07:20;100075.94;;;10.55;71.65
72294;BME280;60632;49.236;8.398;2022-11-15T09:10:21;100071.34;;;10.55;71.75
72294;BME280;60632;49.236;8.398;2022-11-15T09:13:21;100072.41;;;10.54;71.65
72294;BME280;60632;49.236;8.398;2022-11-15T09:16:22;100073.22;;;10.55;71.86
72294;BME280;60632;49.236;8.398;2022-11-15T09:19:22;100062.38;;;10.55;71.65
72294;BME280;60632;49.236;8.398;2022-11-15T09:22:22;100074.03;;;10.55;71.70
72294;BME280;60632;49.236;8.398;2022-11-15T09:25:23;100062.38;;;10.55;71.58
72294;BME280;60632;49.236;8.398;2022-11-15T09:28:23;100064.03;;;10.56;71.74
72294;BME280;60632;49.236;8.398;2022-11-15T09:31:23;100074.88;;;10.56;71.81
72294;BME280;60632;49.236;8.398;2022-11-15T09:34:24;100075.72;;;10.56;71.85
72294;BME280;60632;49.236;8.398;2022-11-15T09:37:25;100059.44;;;10.56;71.83
72294;BME280;60632;49.236;8.398;2022-11-15T09:40:25;100061.91;;;10.58;71.62
72294;BME280;60632;49.236;8.398;2022-11-15T09:43:39;100044.00;;;10.57;71.52
72294;BME280;60632;49.236;8.398;2022-11-15T09:46:45;100051.06;;;10.58;71.71
72294;BME280;60632;49.236;8.398;2022-11-15T09:49:55;100044.84;;;10.57;71.81
72294;BME280;60632;49.236;8.398;2022-11-15T09:52:57;100051.06;;;10.58;71.63
72294;BME280;60632;49.236;8.398;2022-11-15T09:56:18;100045.66;;;10.58;71.73
72294;BME280;60632;49.236;8.398;2022-11-15T09:59:27;100051.06;;;10.58;71.83
72294;BME280;60632;49.236;8.398;2022-11-15T10:05:42;100058.13;;;10.59;71.84
72294;BME280;60632;49.236;8.398;2022-11-15T10:11:58;100054.38;;;10.60;71.81
72294;BME280;60632;49.236;8.398;2022-11-15T10:15:03;100049.78;;;10.60;71.84
72294;BME280;60632;49.236;8.398;2022-11-15T10:18:09;100054.94;;;10.62;71.81
72294;BME280;60632;49.236;8.398;2022-11-15T10:21:15;100043.53;;;10.60;71.67
72294;BME280;60632;49.236;8.398;2022-11-15T10:24:18;100035.97;;;10.62;71.67
72294;BME280;60632;49.236;8.398;2022-11-15T10:27:19;100037.03;;;10.61;71.72
72294;BME280;60632;49.236;8.398;2022-11-15T10:30:20;100034.91;;;10.63;71.79
72294;BME280;60632;49.236;8.398;2022-11-15T10:33:36;100040.34;;;10.63;71.75
72294;BME280;60632;49.236;8.398;2022-11-15T10:36:37;100032.22;;;10.63;71.72
72294;BME280;60632;49.236;8.398;2022-11-15T10:39:38;100028.44;;;10.64;71.77
72294;BME280;60632;49.236;8.398;2022-11-15T10:42:38;100024.63;;;10.65;71.77
72294;BME280;60632;49.236;8.398;2022-11-15T10:45:39;100020.88;;;10.66;71.81
72294;BME280;60632;49.236;8.398;2022-11-15T10:48:39;100006.25;;;10.67;71.70
72294;BME280;60632;49.236;8.398;2022-11-15T10:57:54;99991.16;;;10.71;71.85
72294;BME280;60632;49.236;8.398;2022-11-15T11:00:55;99975.72;;;10.71;71.68
72294;BME280;60632;49.236;8.398;2022-11-15T11:07:08;99976.03;;;10.75;71.84
72294;BME280;60632;49.236;8.398;2022-11-15T11:10:20;99962.25;;;10.77;71.86
72294;BME280;60632;49.236;8.398;2022-11-15T11:16:36;99954.44;;;10.80;71.68
72294;BME280;60632;49.236;8.398;2022-11-15T11:28:56;99925.28;;;10.87;71.94
72294;BME280;60632;49.236;8.398;2022-11-15T11:38:34;99903.69;;;10.92;72.10
72294;BME280;60632;49.236;8.398;2022-11-15T11:41:53;99911.34;;;10.95;71.83
72294;BME280;60632;49.236;8.398;2022-11-15T11:47:59;99906.47;;;10.97;72.05
72294;BME280;60632;49.236;8.398;2022-11-15T11:51:23;99906.25;;;10.99;72.05
72294;BME280;60632;49.236;8.398;2022-11-15T11:54:38;99900.56;;;11.01;71.98
72294;BME280;60632;49.236;8.398;2022-11-15T12:04:09;99881.06;;;11.04;72.05
72294;BME280;60632;49.236;8.398;2022-11-15T12:10:22;99867.28;;;11.05;72.05
72294;BME280;60632;49.236;8.398;2022-11-15T12:13:24;99863.50;;;11.06;72.09
72294;BME280;60632;49.236;8.398;2022-11-15T12:16:27;99863.22;;;11.08;71.97
72294;BME280;60632;49.236;8.398;2022-11-15T12:19:28;99861.38;;;11.08;71.97
72294;BME280;60632;49.236;8.398;2022-11-15T12:22:46;99852.97;;;11.10;72.03
72294;BME280;60632;49.236;8.398;2022-11-15T12:26:22;99849.19;;;11.11;72.11
72294;BME280;60632;49.236;8.398;2022-11-15T12:29:25;99852.72;;;11.11;72.13
72294;BME280;60632;49.236;8.398;2022-11-15T12:32:29;99856.25;;;11.12;72.13
72294;BME280;60632;49.236;8.398;2022-11-15T12:35:41;99842.44;;;11.13;72.06
72294;BME280;60632;49.236;8.398;2022-11-15T12:44:56;99838.41;;;11.16;72.24
72294;BME280;60632;49.236;8.398;2022-11-15T12:51:19;99825.44;;;11.18;72.23
72294;BME280;60632;49.236;8.398;2022-11-15T12:57:27;99815.41;;;11.18;72.13
72294;BME280;60632;49.236;8.398;2022-11-15T13:03:28;99813.00;;;11.22;72.19
72294;BME280;60632;49.236;8.398;2022-11-15T13:07:04;99804.59;;;11.24;72.08
72294;BME280;60632;49.236;8.398;2022-11-15T13:09:59;99794.59;;;11.24;72.26
72294;BME280;60632;49.236;8.398;2022-11-15T13:13:03;99788.91;;;11.26;72.09
72294;BME280;60632;49.236;8.398;2022-11-15T13:16:04;99784.28;;;11.26;72.29
72294;BME280;60632;49.236;8.398;2022-11-15T13:19:04;99784.06;;;11.28;72.18
72294;BME280;60632;49.236;8.398;2022-11-15T13:22:08;99787.31;;;11.30;72.34
72294;BME280;60632;49.236;8.398;2022-11-15T13:34:30;99769.72;;;11.32;72.19
72294;BME280;60632;49.236;8.398;2022-11-15T13:37:35;99758.88;;;11.32;72.35
72294;BME280;60632;49.236;8.398;2022-11-15T13:40:37;99755.06;;;11.33;72.17
72294;BME280;60632;49.236;8.398;2022-11-15T13:43:37;99744.81;;;11.35;72.27
72294;BME280;60632;49.236;8.398;2022-11-15T13:46:37;99738.28;;;11.36;72.11
72294;BME280;60632;49.236;8.398;2022-11-15T13:49:38;99727.44;;;11.36;72.47
72294;BME280;60632;49.236;8.398;2022-11-15T13:52:39;99729.09;;;11.37;72.29
72294;BME280;60632;49.236;8.398;2022-11-15T13:55:43;99724.50;;;11.38;72.33
72294;BME280;60632;49.236;8.398;2022-11-15T13:58:43;99714.44;;;11.38;72.32
72294;BME280;60632;49.236;8.398;2022-11-15T14:01:43;99707.94;;;11.39;72.30
72294;BME280;60632;49.236;8.398;2022-11-15T14:04:48;99704.19;;;11.40;72.31
72294;BME280;60632;49.236;8.398;2022-11-15T14:11:19;99703.09;;;11.41;72.31
72294;BME280;60632;49.236;8.398;2022-11-15T14:14:23;99686.81;;;11.41;72.43
72294;BME280;60632;49.236;8.398;2022-11-15T14:23:31;99673.31;;;11.47;72.43
72294;BME280;60632;49.236;8.398;2022-11-15T14:26:33;99666.81;;;11.48;72.33
72294;BME280;60632;49.236;8.398;2022-11-15T14:29:33;99660.28;;;11.49;72.31
72294;BME280;60632;49.236;8.398;2022-11-15T14:32:52;99643.19;;;11.48;72.32
72294;BME280;60632;49.236;8.398;2022-11-15T14:35:52;99629.34;;;11.50;72.24
72294;BME280;60632;49.236;8.398;2022-11-15T14:38:52;99643.50;;;11.52;72.32
72294;BME280;60632;49.236;8.398;2022-11-15T14:41:54;99649.50;;;11.54;72.44
72294;BME280;60632;49.236;8.398;2022-11-15T14:44:54;99645.13;;;11.53;72.34
72294;BME280;60632;49.236;8.398;2022-11-15T14:47:55;99631.56;;;11.53;72.29
72294;BME280;60632;49.236;8.398;2022-11-15T14:50:55;99630.50;;;11.54;72.33
72294;BME280;60632;49.236;8.398;2022-11-15T14:53:56;99627.78;;;11.54;72.30
72294;BME280;60632;49.236;8.398;2022-11-15T14:56:56;99623.41;;;11.53;72.42
72294;BME280;60632;49.236;8.398;2022-11-15T14:59:57;99621.53;;;11.53;72.54
72294;BME280;60632;49.236;8.398;2022-11-15T15:02:57;99619.63;;;11.54;72.48
72294;BME280;60632;49.236;8.398;2022-11-15T15:05:58;99608.78;;;11.54;72.44
72294;BME280;60632;49.236;8.398;2022-11-15T15:08:58;99608.78;;;11.54;72.42
72294;BME280;60632;49.236;8.398;2022-11-15T15:11:58;99608.28;;;11.57;72.55
72294;BME280;60632;49.236;8.398;2022-11-15T15:14:59;99606.38;;;11.57;72.43
72294;BME280;60632;49.236;8.398;2022-11-15T15:17:59;99597.41;;;11.57;72.45
72294;BME280;60632;49.236;8.398;2022-11-15T15:20:59;99592.81;;;11.57;72.52
72294;BME280;60632;49.236;8.398;2022-11-15T15:24:03;99590.91;;;11.58;72.45
72294;BME280;60632;49.236;8.398;2022-11-15T15:27:04;99582.19;;;11.56;72.48
72294;BME280;60632;49.236;8.398;2022-11-15T15:30:04;99581.94;;;11.57;72.66
72294;BME280;60632;49.236;8.398;2022-11-15T15:33:05;99573.00;;;11.57;72.65
72294;BME280;60632;49.236;8.398;2022-11-15T15:36:12;99566.47;;;11.58;72.53
72294;BME280;60632;49.236;8.398;2022-11-15T15:39:13;99563.19;;;11.56;72.47
72294;BME280;60632;49.236;8.398;2022-11-15T15:42:13;99566.47;;;11.58;72.63
72294;BME280;60632;49.236;8.398;2022-11-15T15:45:14;99555.63;;;11.58;72.63
72294;BME280;60632;49.236;8.398;2022-11-15T15:48:15;99553.19;;;11.56;72.47
72294;BME280;60632;49.236;8.398;2022-11-15T15:51:16;99552.91;;;11.58;72.53
72294;BME280;60632;49.236;8.398;2022-11-15T15:54:16;99548.56;;;11.57;72.68
72294;BME280;60632;49.236;8.398;2022-11-15T15:57:17;99550.19;;;11.58;72.66
72294;BME280;60632;49.236;8.398;2022-11-15T16:00:18;99550.19;;;11.58;72.48
72294;BME280;60632;49.236;8.398;2022-11-15T16:03:18;99543.97;;;11.57;72.58
72294;BME280;60632;49.236;8.398;2022-11-15T16:06:36;99542.06;;;11.58;72.69
72294;BME280;60632;49.236;8.398;2022-11-15T16:09:36;99527.69;;;11.57;72.68
72294;BME280;60632;49.236;8.398;2022-11-15T16:12:56;99530.38;;;11.57;72.71
72294;BME280;60632;49.236;8.398;2022-11-15T16:15:57;99525.78;;;11.58;72.57
72294;BME280;60632;49.236;8.398;2022-11-15T16:18:57;99518.97;;;11.55;72.68
72294;BME280;60632;49.236;8.398;2022-11-15T16:21:57;99512.19;;;11.58;72.58
72294;BME280;60632;49.236;8.398;2022-11-15T16:24:58;99507.59;;;11.58;72.64
72294;BME280;60632;49.236;8.398;2022-11-15T16:27:58;99501.34;;;11.58;72.61
72294;BME280;60632;49.236;8.398;2022-11-15T16:31:05;99501.34;;;11.58;72.79
72294;BME280;60632;49.236;8.398;2022-11-15T16:34:07;99500.25;;;11.59;72.73
72294;BME280;60632;49.236;8.398;2022-11-15T16:37:21;99497.56;;;11.59;72.71
72294;BME280;60632;49.236;8.398;2022-11-15T16:43:22;99499.22;;;11.60;72.55
72294;BME280;60632;49.236;8.398;2022-11-15T16:46:26;99491.06;;;11.60;72.60
72294;BME280;60632;49.236;8.398;2022-11-15T16:49:27;99493.78;;;11.60;72.59
72294;BME280;60632;49.236;8.398;2022-11-15T16:52:27;99482.91;;;11.60;72.64
72294;BME280;60632;49.236;8.398;2022-11-15T16:55:28;99484.53;;;11.61;72.78
72294;BME280;60632;49.236;8.398;2022-11-15T16:58:28;99479.13;;;11.61;72.74
72294;BME280;60632;49.236;8.398;2022-11-15T17:01:30;99468.25;;;11.61;72.62
72294;BME280;60632;49.236;8.398;2022-11-15T17:04:31;99462.84;;;11.61;72.61
72294;BME280;60632;49.236;8.398;2022-11-15T17:07:33;99461.75;;;11.62;72.72
72294;BME280;60632;49.236;8.398;2022-11-15T17:10:33;99461.75;;;11.62;72.61
72294;BME280;60632;49.236;8.398;2022-11-15T17:13:38;99463.66;;;11.61;72.62
72294;BME280;60632;49.236;8.398;2022-11-15T17:16:38;99457.41;;;11.61;72.64
72294;BME280;60632;49.236;8.398;2022-11-15T17:19:41;99459.84;;;11.62;72.67
72294;BME280;60632;49.236;8.398;2022-11-15T17:22:41;99466.13;;;11.63;72.65
72294;BME280;60632;49.236;8.398;2022-11-15T17:25:42;99459.03;;;11.62;72.66
72294;BME280;60632;49.236;8.398;2022-11-15T17:28:42;99460.69;;;11.63;72.67
72294;BME280;60632;49.236;8.398;2022-11-15T17:31:43;99459.59;;;11.64;72.66
72294;BME280;60632;49.236;8.398;2022-11-15T17:34:43;99457.97;;;11.63;72.64
72294;BME280;60632;49.236;8.398;2022-11-15T17:37:44;99455.25;;;11.63;72.75
72294;BME280;60632;49.236;8.398;2022-11-15T17:40:44;99445.22;;;11.63;72.79
72294;BME280;60632;49.236;8.398;2022-11-15T17:43:44;99446.03;;;11.64;72.70
72294;BME280;60632;49.236;8.398;2022-11-15T17:46:46;99440.59;;;11.64;72.76
72294;BME280;60632;49.236;8.398;2022-11-15T17:49:46;99444.13;;;11.64;72.67